createdAt,value
2018-05-03T00:00:07.118Z,0.00
2018-05-03T00:01:07.173Z,0.00
2018-05-03T00:02:07.278Z,0.00
2018-05-03T00:03:07.262Z,0.00
2018-05-03T00:04:07.310Z,0.00
2018-05-03T00:05:07.376Z,0.00
2018-05-03T00:06:07.407Z,0.00
2018-05-03T00:07:07.478Z,0.00
2018-05-03T00:08:07.504Z,0.00
2018-05-03T00:09:07.552Z,0.00
2018-05-03T00:10:07.603Z,0.00
2018-05-03T00:11:07.674Z,0.00
2018-05-03T00:12:07.699Z,0.00
2018-05-03T00:13:07.745Z,0.00
2018-05-03T00:14:07.793Z,0.00
2018-05-03T00:15:07.842Z,0.00
2018-05-03T00:16:07.921Z,0.00
2018-05-03T00:17:07.939Z,0.00
2018-05-03T00:18:07.998Z,0.00
2018-05-03T00:19:08.039Z,0.00
2018-05-03T00:20:08.088Z,0.00
2018-05-03T00:21:08.162Z,0.00
2018-05-03T00:22:08.180Z,0.00
2018-05-03T00:23:08.229Z,0.00
2018-05-03T00:24:08.279Z,0.00
2018-05-03T00:25:08.331Z,0.00
2018-05-03T00:26:08.404Z,0.00
2018-05-03T00:27:08.430Z,0.00
2018-05-03T00:28:08.473Z,0.00
2018-05-03T00:29:08.521Z,0.00
2018-05-03T00:30:08.569Z,0.00
2018-05-03T00:31:08.641Z,0.00
2018-05-03T00:32:08.669Z,0.00
2018-05-03T00:33:08.755Z,0.00
2018-05-03T00:34:08.764Z,0.00
2018-05-03T00:35:08.813Z,0.00
2018-05-03T00:36:08.880Z,0.00
2018-05-03T00:37:08.914Z,0.00
2018-05-03T00:38:08.979Z,0.00
2018-05-03T00:39:09.005Z,0.00
2018-05-03T00:40:09.054Z,0.00
2018-05-03T00:41:09.104Z,0.00
2018-05-03T00:42:09.152Z,0.00
2018-05-03T00:43:09.222Z,0.00
2018-05-03T00:44:09.246Z,0.00
2018-05-03T00:45:09.298Z,0.00
2018-05-03T00:46:09.346Z,0.00
2018-05-03T00:47:09.391Z,0.00
2018-05-03T00:48:09.478Z,0.00
2018-05-03T00:49:09.491Z,0.00
2018-05-03T00:50:09.540Z,0.00
2018-05-03T00:51:09.586Z,0.00
2018-05-03T00:52:09.634Z,0.00
2018-05-03T00:53:09.704Z,0.00
2018-05-03T00:54:09.753Z,0.00
2018-05-03T00:55:09.778Z,0.00
2018-05-03T00:56:09.828Z,0.00
2018-05-03T00:57:09.881Z,0.00
2018-05-03T00:58:09.923Z,0.00
2018-05-03T00:59:09.995Z,0.00
2018-05-03T01:00:10.020Z,0.00
2018-05-03T01:01:10.070Z,0.00
2018-05-03T01:02:10.116Z,0.00
2018-05-03T01:03:10.164Z,0.00
2018-05-03T01:04:10.237Z,0.00
2018-05-03T01:05:10.262Z,0.00
2018-05-03T01:06:10.313Z,0.00
2018-05-03T01:07:10.358Z,0.00
2018-05-03T01:08:10.407Z,0.00
2018-05-03T01:09:10.482Z,0.00
2018-05-03T01:10:10.526Z,0.00
2018-05-03T01:11:10.555Z,0.00
2018-05-03T01:12:10.600Z,0.00
2018-05-03T01:13:10.647Z,0.00
2018-05-03T01:14:10.703Z,0.00
2018-05-03T01:15:10.771Z,0.00
2018-05-03T01:16:10.796Z,0.00
2018-05-03T01:17:10.842Z,0.00
2018-05-03T01:18:10.889Z,0.00
2018-05-03T01:19:10.940Z,0.00
2018-05-03T01:20:11.028Z,0.00
2018-05-03T01:21:11.035Z,0.00
2018-05-03T01:22:11.083Z,0.00
2018-05-03T01:23:11.136Z,0.00
2018-05-03T01:24:11.180Z,0.00
2018-05-03T01:25:11.259Z,0.00
2018-05-03T01:26:11.277Z,0.00
2018-05-03T01:27:11.324Z,0.00
2018-05-03T01:28:11.372Z,0.00
2018-05-03T01:29:11.423Z,0.00
2018-05-03T01:30:11.498Z,0.00
2018-05-03T01:31:11.521Z,0.00
2018-05-03T01:32:11.568Z,0.00
2018-05-03T01:33:11.616Z,0.00
2018-05-03T01:34:11.662Z,0.00
2018-05-03T01:35:11.754Z,0.00
2018-05-03T01:36:11.760Z,0.00
2018-05-03T01:37:11.813Z,0.00
2018-05-03T01:38:11.855Z,0.00
2018-05-03T01:39:11.903Z,0.00
2018-05-03T01:40:11.978Z,0.00
2018-05-03T01:41:12.025Z,0.00
2018-05-03T01:42:12.051Z,0.00
2018-05-03T01:43:12.096Z,0.00
2018-05-03T01:44:12.144Z,0.00
2018-05-03T01:45:12.193Z,0.00
2018-05-03T01:46:12.277Z,0.00
2018-05-03T01:47:12.289Z,0.00
2018-05-03T01:48:12.348Z,0.00
2018-05-03T01:49:12.385Z,0.00
2018-05-03T01:50:12.433Z,0.00
2018-05-03T01:51:12.510Z,0.00
2018-05-03T01:52:12.533Z,0.00
2018-05-03T01:53:12.583Z,0.00
2018-05-03T01:54:12.626Z,0.00
2018-05-03T01:55:12.674Z,0.00
2018-05-03T01:56:12.754Z,0.00
2018-05-03T01:57:12.772Z,0.00
2018-05-03T01:58:12.822Z,0.00
2018-05-03T01:59:12.868Z,0.00
2018-05-03T02:00:12.917Z,0.00
2018-05-03T02:01:12.989Z,0.00
2018-05-03T02:02:13.014Z,0.00
2018-05-03T02:03:13.075Z,0.00
2018-05-03T02:04:13.109Z,0.00
2018-05-03T02:05:13.161Z,0.00
2018-05-03T02:06:13.236Z,0.00
2018-05-03T02:07:13.256Z,0.00
2018-05-03T02:08:13.302Z,0.00
2018-05-03T02:09:13.350Z,0.00
2018-05-03T02:10:13.398Z,0.00
2018-05-03T02:11:13.476Z,0.00
2018-05-03T02:12:13.523Z,0.00
2018-05-03T02:13:13.545Z,0.00
2018-05-03T02:14:13.591Z,0.00
2018-05-03T02:15:13.638Z,0.00
2018-05-03T02:16:13.689Z,0.00
2018-05-03T02:17:13.759Z,0.00
2018-05-03T02:18:13.782Z,0.00
2018-05-03T02:19:13.830Z,0.00
2018-05-03T02:20:13.882Z,0.00
2018-05-03T02:21:13.930Z,0.00
2018-05-03T02:22:14.015Z,0.00
2018-05-03T02:23:14.024Z,0.00
2018-05-03T02:24:14.074Z,0.00
2018-05-03T02:25:14.122Z,0.00
2018-05-03T02:26:14.168Z,0.00
2018-05-03T02:27:14.250Z,0.00
2018-05-03T02:28:14.272Z,0.00
2018-05-03T02:29:14.313Z,0.00
2018-05-03T02:30:14.361Z,0.00
2018-05-03T02:31:14.413Z,0.00
2018-05-03T02:32:14.482Z,0.00
2018-05-03T02:33:14.531Z,0.00
2018-05-03T02:34:14.556Z,0.00
2018-05-03T02:35:14.605Z,0.00
2018-05-03T02:36:14.651Z,0.00
2018-05-03T02:37:14.700Z,0.00
2018-05-03T02:38:14.771Z,0.00
2018-05-03T02:39:14.799Z,0.00
2018-05-03T02:40:14.843Z,0.00
2018-05-03T02:41:14.892Z,0.00
2018-05-03T02:42:14.942Z,0.00
2018-05-03T02:43:15.029Z,0.00
2018-05-03T02:44:15.036Z,0.00
2018-05-03T02:45:15.083Z,0.00
2018-05-03T02:46:15.680Z,0.00
2018-05-03T02:47:15.190Z,0.00
2018-05-03T02:48:15.251Z,0.00
2018-05-03T02:49:15.277Z,0.00
2018-05-03T02:50:15.352Z,0.00
2018-05-03T02:51:15.372Z,0.00
2018-05-03T02:52:15.428Z,0.00
2018-05-03T02:53:15.470Z,0.00
2018-05-03T02:54:15.517Z,0.00
2018-05-03T02:55:15.592Z,0.00
2018-05-03T02:56:15.612Z,0.00
2018-05-03T02:57:15.660Z,0.00
2018-05-03T02:58:15.710Z,0.00
2018-05-03T02:59:15.780Z,0.00
2018-05-03T03:00:15.808Z,0.00
2018-05-03T03:01:15.852Z,0.00
2018-05-03T03:02:15.922Z,0.00
2018-05-03T03:03:15.949Z,0.00
2018-05-03T03:04:16.032Z,0.00
2018-05-03T03:05:16.046Z,0.00
2018-05-03T03:06:16.119Z,0.00
2018-05-03T03:07:16.140Z,0.00
2018-05-03T03:08:16.191Z,0.00
2018-05-03T03:09:16.239Z,0.00
2018-05-03T03:10:16.312Z,0.00
2018-05-03T03:11:16.338Z,0.00
2018-05-03T03:12:16.404Z,0.00
2018-05-03T03:13:16.429Z,0.00
2018-05-03T03:14:16.480Z,0.00
2018-05-03T03:15:16.524Z,0.00
2018-05-03T03:16:16.623Z,0.00
2018-05-03T03:17:16.623Z,0.00
2018-05-03T03:18:16.671Z,0.00
2018-05-03T03:19:16.717Z,0.00
2018-05-03T03:20:16.768Z,0.00
2018-05-03T03:21:16.836Z,0.00
2018-05-03T03:22:16.885Z,0.00
2018-05-03T03:23:16.914Z,0.00
2018-05-03T03:24:16.959Z,0.00
2018-05-03T03:25:17.006Z,0.00
2018-05-03T03:26:17.055Z,0.00
2018-05-03T03:27:17.138Z,0.00
2018-05-03T03:28:17.150Z,0.00
2018-05-03T03:29:17.206Z,0.00
2018-05-03T03:30:17.246Z,0.00
2018-05-03T03:31:17.293Z,0.00
2018-05-03T03:32:17.369Z,0.00
2018-05-03T03:33:17.419Z,0.00
2018-05-03T03:34:17.438Z,0.00
2018-05-03T03:35:17.489Z,0.00
2018-05-03T03:36:17.533Z,0.00
2018-05-03T03:37:17.581Z,0.00
2018-05-03T03:38:17.652Z,4.00
2018-05-03T03:39:17.676Z,4.00
2018-05-03T03:40:17.727Z,4.00
2018-05-03T03:41:17.775Z,4.00
2018-05-03T03:42:17.823Z,4.00
2018-05-03T03:43:17.892Z,4.00
2018-05-03T03:44:17.920Z,8.00
2018-05-03T03:45:17.966Z,8.00
2018-05-03T03:46:18.016Z,12.00
2018-05-03T03:47:18.061Z,12.00
2018-05-03T03:48:18.140Z,16.00
2018-05-03T03:49:18.180Z,16.00
2018-05-03T03:50:18.205Z,16.00
2018-05-03T03:51:18.253Z,20.00
2018-05-03T03:52:18.302Z,20.00
2018-05-03T03:53:18.394Z,20.00
2018-05-03T03:54:18.422Z,24.00
2018-05-03T03:55:18.447Z,28.00
2018-05-03T03:56:18.501Z,28.00
2018-05-03T03:57:18.545Z,32.00
2018-05-03T03:58:18.592Z,36.00
2018-05-03T03:59:18.661Z,36.00
2018-05-03T04:00:18.718Z,36.00
2018-05-03T04:01:18.734Z,44.00
2018-05-03T04:02:18.780Z,48.00
2018-05-03T04:03:18.829Z,52.00
2018-05-03T04:04:18.919Z,56.00
2018-05-03T04:05:18.927Z,60.00
2018-05-03T04:06:18.973Z,64.00
2018-05-03T04:07:19.028Z,64.00
2018-05-03T04:08:19.071Z,68.00
2018-05-03T04:09:19.140Z,68.00
2018-05-03T04:10:19.165Z,76.00
2018-05-03T04:11:19.213Z,80.00
2018-05-03T04:12:19.262Z,92.00
2018-05-03T04:13:19.319Z,104.00
2018-05-03T04:14:19.380Z,112.00
2018-05-03T04:15:19.432Z,124.00
2018-05-03T04:16:19.453Z,132.00
2018-05-03T04:17:19.500Z,140.00
2018-05-03T04:18:19.548Z,148.00
2018-05-03T04:19:19.597Z,156.00
2018-05-03T04:20:19.673Z,156.00
2018-05-03T04:21:19.697Z,160.00
2018-05-03T04:22:19.847Z,164.00
2018-05-03T04:23:19.789Z,168.00
2018-05-03T04:24:19.837Z,172.00
2018-05-03T04:25:19.922Z,184.00
2018-05-03T04:26:19.936Z,192.00
2018-05-03T04:27:19.992Z,196.00
2018-05-03T04:28:20.030Z,200.00
2018-05-03T04:29:20.077Z,200.00
2018-05-03T04:30:20.159Z,204.00
2018-05-03T04:31:20.175Z,204.00
2018-05-03T04:32:20.221Z,208.00
2018-05-03T04:33:20.271Z,208.00
2018-05-03T04:34:20.317Z,212.00
2018-05-03T04:35:20.392Z,220.00
2018-05-03T04:36:20.437Z,232.00
2018-05-03T04:37:20.461Z,240.00
2018-05-03T04:38:20.511Z,240.00
2018-05-03T04:39:20.559Z,236.00
2018-05-03T04:40:20.605Z,236.00
2018-05-03T04:41:20.677Z,232.00
2018-05-03T04:42:20.703Z,228.00
2018-05-03T04:43:20.753Z,224.00
2018-05-03T04:44:20.799Z,220.00
2018-05-03T04:45:20.852Z,224.00
2018-05-03T04:46:20.930Z,228.00
2018-05-03T04:47:20.940Z,236.00
2018-05-03T04:48:20.989Z,240.00
2018-05-03T04:49:21.040Z,240.00
2018-05-03T04:50:21.084Z,236.00
2018-05-03T04:51:21.171Z,232.00
2018-05-03T04:52:21.180Z,232.00
2018-05-03T04:53:21.229Z,228.00
2018-05-03T04:54:21.276Z,232.00
2018-05-03T04:55:21.327Z,240.00
2018-05-03T04:56:21.397Z,248.00
2018-05-03T04:57:21.422Z,260.00
2018-05-03T04:58:21.496Z,276.00
2018-05-03T04:59:21.515Z,292.00
2018-05-03T05:00:21.566Z,316.00
2018-05-03T05:01:21.616Z,340.00
2018-05-03T05:02:21.661Z,360.00
2018-05-03T05:03:21.732Z,384.00
2018-05-03T05:04:21.765Z,404.00
2018-05-03T05:05:21.804Z,432.00
2018-05-03T05:06:21.852Z,452.00
2018-05-03T05:07:21.901Z,468.00
2018-05-03T05:08:22.001Z,476.00
2018-05-03T05:09:21.997Z,480.00
2018-05-03T05:10:22.045Z,492.00
2018-05-03T05:11:22.094Z,504.00
2018-05-03T05:12:22.216Z,516.00
2018-05-03T05:13:22.212Z,532.00
2018-05-03T05:14:22.267Z,580.00
2018-05-03T05:15:22.291Z,640.00
2018-05-03T05:16:22.333Z,716.00
2018-05-03T05:17:22.392Z,788.00
2018-05-03T05:18:22.464Z,860.00
2018-05-03T05:19:22.540Z,948.00
2018-05-03T05:20:22.524Z,976.00
2018-05-03T05:21:22.573Z,912.00
2018-05-03T05:22:22.625Z,784.00
2018-05-03T05:23:22.671Z,716.00
2018-05-03T05:24:22.757Z,736.00
2018-05-03T05:25:22.766Z,780.00
2018-05-03T05:26:22.812Z,820.00
2018-05-03T05:27:22.861Z,840.00
2018-05-03T05:28:22.908Z,856.00
2018-05-03T05:29:22.978Z,900.00
2018-05-03T05:30:23.031Z,1008.00
2018-05-03T05:31:23.051Z,1068.00
2018-05-03T05:32:23.106Z,1032.00
2018-05-03T05:33:23.148Z,980.00
2018-05-03T05:34:23.195Z,972.00
2018-05-03T05:35:23.283Z,1024.00
2018-05-03T05:36:23.294Z,1120.00
2018-05-03T05:37:23.343Z,1256.00
2018-05-03T05:38:23.412Z,1392.00
2018-05-03T05:39:23.434Z,1504.00
2018-05-03T05:40:23.507Z,1528.00
2018-05-03T05:41:23.558Z,1520.00
2018-05-03T05:42:23.580Z,1592.00
2018-05-03T05:43:23.637Z,1600.00
2018-05-03T05:44:23.735Z,1620.00
2018-05-03T05:45:23.726Z,1648.00
2018-05-03T05:46:23.797Z,1652.00
2018-05-03T05:47:23.819Z,1640.00
2018-05-03T05:48:23.868Z,1628.00
2018-05-03T05:49:23.915Z,1648.00
2018-05-03T05:50:23.964Z,1692.00
2018-05-03T05:51:24.034Z,1748.00
2018-05-03T05:52:24.062Z,1800.00
2018-05-03T05:53:24.109Z,1844.00
2018-05-03T05:54:24.153Z,1864.00
2018-05-03T05:55:24.211Z,1848.00
2018-05-03T05:56:24.279Z,1792.00
2018-05-03T05:57:24.297Z,1744.00
2018-05-03T05:58:24.346Z,1816.00
2018-05-03T05:59:24.394Z,2016.00
2018-05-03T06:00:24.442Z,2192.00
2018-05-03T06:01:24.521Z,2336.00
2018-05-03T06:02:24.543Z,2444.00
2018-05-03T06:03:24.609Z,2504.00
2018-05-03T06:04:24.642Z,2504.00
2018-05-03T06:05:24.682Z,2416.00
2018-05-03T06:06:24.732Z,2272.00
2018-05-03T06:07:24.784Z,2172.00
2018-05-03T06:08:24.850Z,2148.00
2018-05-03T06:09:24.876Z,2196.00
2018-05-03T06:10:24.992Z,2284.00
2018-05-03T06:11:24.994Z,2356.00
2018-05-03T06:12:25.034Z,2356.00
2018-05-03T06:13:25.068Z,2360.00
2018-05-03T06:14:25.113Z,2420.00
2018-05-03T06:15:25.161Z,2500.00
2018-05-03T06:16:25.243Z,2600.00
2018-05-03T06:17:25.262Z,2708.00
2018-05-03T06:18:25.330Z,2760.00
2018-05-03T06:19:25.355Z,2752.00
2018-05-03T06:20:25.403Z,2720.00
2018-05-03T06:21:25.484Z,2720.00
2018-05-03T06:22:25.500Z,2792.00
2018-05-03T06:23:25.547Z,2936.00
2018-05-03T06:24:25.624Z,3120.00
2018-05-03T06:25:25.643Z,3256.00
2018-05-03T06:26:25.713Z,3384.00
2018-05-03T06:27:25.743Z,3464.00
2018-05-03T06:28:25.786Z,3484.00
2018-05-03T06:29:25.839Z,3472.00
2018-05-03T06:30:25.913Z,3512.00
2018-05-03T06:31:25.931Z,3644.00
2018-05-03T06:32:25.981Z,3872.00
2018-05-03T06:33:26.039Z,4268.00
2018-05-03T06:34:26.078Z,4764.00
2018-05-03T06:35:26.148Z,5300.00
2018-05-03T06:36:26.181Z,5792.00
2018-05-03T06:37:26.246Z,6228.00
2018-05-03T06:38:26.269Z,6548.00
2018-05-03T06:39:26.317Z,6656.00
2018-05-03T06:40:26.386Z,6756.00
2018-05-03T06:41:26.411Z,6952.00
2018-05-03T06:42:26.483Z,7080.00
2018-05-03T06:43:26.518Z,7000.00
2018-05-03T06:44:26.557Z,6692.00
2018-05-03T06:45:26.609Z,6368.00
2018-05-03T06:46:26.680Z,6116.00
2018-05-03T06:47:26.700Z,5964.00
2018-05-03T06:48:26.749Z,5800.00
2018-05-03T06:49:26.801Z,5668.00
2018-05-03T06:50:26.851Z,5664.00
2018-05-03T06:51:26.951Z,5732.00
2018-05-03T06:52:26.944Z,5844.00
2018-05-03T06:53:26.993Z,6036.00
2018-05-03T06:54:27.037Z,6208.00
2018-05-03T06:55:27.094Z,6288.00
2018-05-03T06:56:27.159Z,6368.00
2018-05-03T06:57:27.183Z,6520.00
2018-05-03T06:58:27.255Z,6600.00
2018-05-03T06:59:27.280Z,6580.00
2018-05-03T07:00:27.342Z,6552.00
2018-05-03T07:01:27.376Z,6588.00
2018-05-03T07:02:27.450Z,6700.00
2018-05-03T07:03:27.501Z,6872.00
2018-05-03T07:04:27.585Z,6948.00
2018-05-03T07:05:27.577Z,6808.00
2018-05-03T07:06:27.616Z,6560.00
2018-05-03T07:07:27.666Z,6404.00
2018-05-03T07:08:27.743Z,6328.00
2018-05-03T07:09:27.765Z,6296.00
2018-05-03T07:10:27.836Z,6276.00
2018-05-03T07:11:27.862Z,6276.00
2018-05-03T07:12:27.909Z,6268.00
2018-05-03T07:13:27.981Z,6252.00
2018-05-03T07:14:28.005Z,6240.00
2018-05-03T07:15:28.053Z,6212.00
2018-05-03T07:16:28.101Z,6248.00
2018-05-03T07:17:28.151Z,6480.00
2018-05-03T07:18:28.229Z,6872.00
2018-05-03T07:19:28.252Z,7280.00
2018-05-03T07:20:28.296Z,7680.00
2018-05-03T07:21:28.345Z,8052.00
2018-05-03T07:22:28.392Z,8508.00
2018-05-03T07:23:28.470Z,9108.00
2018-05-03T07:24:28.488Z,9776.00
2018-05-03T07:25:28.542Z,10480.00
2018-05-03T07:26:28.586Z,11196.00
2018-05-03T07:27:28.633Z,11800.00
2018-05-03T07:28:28.723Z,12092.00
2018-05-03T07:29:28.799Z,11980.00
2018-05-03T07:30:28.781Z,11568.00
2018-05-03T07:31:28.827Z,11068.00
2018-05-03T07:32:28.877Z,10712.00
2018-05-03T07:33:28.960Z,10552.00
2018-05-03T07:34:28.972Z,10512.00
2018-05-03T07:35:29.028Z,10436.00
2018-05-03T07:36:29.070Z,10272.00
2018-05-03T07:37:29.120Z,9996.00
2018-05-03T07:38:29.190Z,9680.00
2018-05-03T07:39:29.218Z,9384.00
2018-05-03T07:40:29.291Z,9052.00
2018-05-03T07:41:29.317Z,8764.00
2018-05-03T07:42:29.372Z,8552.00
2018-05-03T07:43:29.410Z,8400.00
2018-05-03T07:44:29.458Z,8308.00
2018-05-03T07:45:29.558Z,8200.00
2018-05-03T07:46:29.557Z,8056.00
2018-05-03T07:47:29.608Z,7800.00
2018-05-03T07:48:29.713Z,7460.00
2018-05-03T07:49:29.705Z,7164.00
2018-05-03T07:50:29.778Z,7040.00
2018-05-03T07:51:29.825Z,7124.00
2018-05-03T07:52:29.851Z,7408.00
2018-05-03T07:53:29.897Z,7848.00
2018-05-03T07:54:29.948Z,8392.00
2018-05-03T07:55:29.996Z,9008.00
2018-05-03T07:56:30.070Z,9628.00
2018-05-03T07:57:30.101Z,10196.00
2018-05-03T07:58:30.140Z,10696.00
2018-05-03T07:59:30.196Z,11184.00
2018-05-03T08:00:30.238Z,11632.00
2018-05-03T08:01:30.313Z,12100.00
2018-05-03T08:02:30.335Z,12672.00
2018-05-03T08:03:30.386Z,13412.00
2018-05-03T08:04:30.433Z,14300.00
2018-05-03T08:05:30.484Z,15232.00
2018-05-03T08:06:30.553Z,16092.00
2018-05-03T08:07:30.585Z,16664.00
2018-05-03T08:08:30.631Z,16668.00
2018-05-03T08:09:30.676Z,16460.00
2018-05-03T08:10:30.725Z,16260.00
2018-05-03T08:11:30.808Z,16216.00
2018-05-03T08:12:30.824Z,16208.00
2018-05-03T08:13:30.882Z,15928.00
2018-05-03T08:14:30.925Z,15356.00
2018-05-03T08:15:30.971Z,14752.00
2018-05-03T08:16:31.059Z,14396.00
2018-05-03T08:17:31.073Z,14376.00
2018-05-03T08:18:31.154Z,14648.00
2018-05-03T08:19:31.166Z,15056.00
2018-05-03T08:20:31.214Z,15276.00
2018-05-03T08:21:31.268Z,15024.00
2018-05-03T08:22:31.316Z,14476.00
2018-05-03T08:23:31.388Z,14072.00
2018-05-03T08:24:31.414Z,13928.00
2018-05-03T08:25:31.465Z,13860.00
2018-05-03T08:26:31.513Z,13832.00
2018-05-03T08:27:31.559Z,13580.00
2018-05-03T08:28:31.677Z,13232.00
2018-05-03T08:29:31.661Z,12984.00
2018-05-03T08:30:31.705Z,12924.00
2018-05-03T08:31:31.762Z,13032.00
2018-05-03T08:32:31.804Z,13276.00
2018-05-03T08:33:31.877Z,13652.00
2018-05-03T08:34:31.902Z,14132.00
2018-05-03T08:35:31.952Z,14692.00
2018-05-03T08:36:32.000Z,15536.00
2018-05-03T08:37:32.053Z,16376.00
2018-05-03T08:38:32.123Z,17352.00
2018-05-03T08:39:32.172Z,18720.00
2018-05-03T08:40:32.200Z,19968.00
2018-05-03T08:41:32.247Z,20640.00
2018-05-03T08:42:32.295Z,20608.00
2018-05-03T08:43:32.345Z,20352.00
2018-05-03T08:44:32.423Z,20448.00
2018-05-03T08:45:32.469Z,21024.00
2018-05-03T08:46:32.496Z,21664.00
2018-05-03T08:47:32.542Z,21568.00
2018-05-03T08:48:32.596Z,21248.00
2018-05-03T08:49:32.643Z,21344.00
2018-05-03T08:50:32.713Z,22176.00
2018-05-03T08:51:32.739Z,23616.00
2018-05-03T08:52:32.795Z,25888.00
2018-05-03T08:53:32.839Z,28544.00
2018-05-03T08:54:32.888Z,29312.00
2018-05-03T08:55:32.993Z,26688.00
2018-05-03T08:56:32.988Z,24256.00
2018-05-03T08:57:33.041Z,24288.00
2018-05-03T08:58:33.086Z,26208.00
2018-05-03T08:59:33.136Z,28704.00
2018-05-03T09:00:33.225Z,29824.00
2018-05-03T09:01:33.262Z,29184.00
2018-05-03T09:02:33.302Z,26880.00
2018-05-03T09:03:33.332Z,24512.00
2018-05-03T09:04:33.381Z,23264.00
2018-05-03T09:05:33.471Z,23168.00
2018-05-03T09:06:33.477Z,24160.00
2018-05-03T09:07:33.579Z,26208.00
2018-05-03T09:08:33.590Z,30208.00
2018-05-03T09:09:33.638Z,36832.00
2018-05-03T09:10:33.711Z,38656.00
2018-05-03T09:11:33.735Z,36544.00
2018-05-03T09:12:33.781Z,33504.00
2018-05-03T09:13:33.830Z,31488.00
2018-05-03T09:14:33.879Z,30624.00
2018-05-03T09:15:33.955Z,30304.00
2018-05-03T09:16:33.983Z,30496.00
2018-05-03T09:17:34.059Z,30016.00
2018-05-03T09:18:34.080Z,30240.00
2018-05-03T09:19:34.130Z,30816.00
2018-05-03T09:20:34.179Z,31584.00
2018-05-03T09:21:34.230Z,31968.00
2018-05-03T09:22:34.301Z,32512.00
2018-05-03T09:23:34.326Z,32864.00
2018-05-03T09:24:35.243Z,32736.00
2018-05-03T09:25:34.427Z,32608.00
2018-05-03T09:26:34.483Z,32992.00
2018-05-03T09:27:34.562Z,34592.00
2018-05-03T09:28:34.577Z,37888.00
2018-05-03T09:29:34.630Z,42496.00
2018-05-03T09:30:34.679Z,49792.00
2018-05-03T09:31:34.730Z,49696.00
2018-05-03T09:32:34.809Z,49792.00
2018-05-03T09:33:34.831Z,49120.00
2018-05-03T09:34:34.880Z,48416.00
2018-05-03T09:35:34.929Z,45376.00
2018-05-03T09:36:34.981Z,43456.00
2018-05-03T09:37:35.054Z,44864.00
2018-05-03T09:38:35.124Z,42720.00
2018-05-03T09:39:35.133Z,43328.00
2018-05-03T09:40:35.180Z,43264.00
2018-05-03T09:41:35.234Z,43168.00
2018-05-03T09:42:35.283Z,42784.00
2018-05-03T09:43:35.371Z,42112.00
2018-05-03T09:44:35.384Z,41696.00
2018-05-03T09:45:35.436Z,41248.00
2018-05-03T09:46:35.485Z,41216.00
2018-05-03T09:47:35.535Z,41408.00
2018-05-03T09:48:35.616Z,41888.00
2018-05-03T09:49:35.637Z,42688.00
2018-05-03T09:50:35.689Z,43232.00
2018-05-03T09:51:35.752Z,44032.00
2018-05-03T09:52:35.828Z,42336.00
2018-05-03T09:53:35.877Z,41824.00
2018-05-03T09:54:35.937Z,40672.00
2018-05-03T09:55:35.944Z,40416.00
2018-05-03T09:56:35.995Z,40000.00
2018-05-03T09:57:36.049Z,40480.00
2018-05-03T09:58:36.095Z,41376.00
2018-05-03T09:59:36.172Z,42400.00
2018-05-03T10:00:36.198Z,43360.00
2018-05-03T10:01:36.250Z,44256.00
2018-05-03T10:02:36.300Z,45024.00
2018-05-03T10:03:36.351Z,46176.00
2018-05-03T10:04:36.428Z,46720.00
2018-05-03T10:05:36.458Z,48384.00
2018-05-03T10:06:36.529Z,49120.00
2018-05-03T10:07:36.556Z,63616.00
2018-05-03T10:08:36.610Z,57760.00
2018-05-03T10:09:36.684Z,53504.00
2018-05-03T10:10:36.710Z,48192.00
2018-05-03T10:11:36.764Z,45344.00
2018-05-03T10:12:36.820Z,44224.00
2018-05-03T10:13:36.873Z,45408.00
2018-05-03T10:14:37.020Z,46144.00
2018-05-03T10:15:36.968Z,46944.00
2018-05-03T10:16:37.052Z,47136.00
2018-05-03T10:17:37.072Z,47392.00
2018-05-03T10:18:37.128Z,49504.00
2018-05-03T10:19:37.174Z,49728.00
2018-05-03T10:20:37.226Z,47232.00
2018-05-03T10:21:37.305Z,42400.00
2018-05-03T10:22:37.396Z,39264.00
2018-05-03T10:23:37.381Z,39008.00
2018-05-03T10:24:37.434Z,41280.00
2018-05-03T10:25:37.487Z,43904.00
2018-05-03T10:26:37.576Z,45632.00
2018-05-03T10:27:37.592Z,43072.00
2018-05-03T10:28:37.641Z,43808.00
2018-05-03T10:29:37.692Z,44224.00
2018-05-03T10:30:37.743Z,43328.00
2018-05-03T10:31:37.824Z,40288.00
2018-05-03T10:32:37.857Z,36960.00
2018-05-03T10:33:37.897Z,34304.00
2018-05-03T10:34:37.952Z,33024.00
2018-05-03T10:35:38.076Z,33120.00
2018-05-03T10:36:38.091Z,32672.00
2018-05-03T10:37:38.111Z,31104.00
2018-05-03T10:38:38.155Z,30144.00
2018-05-03T10:39:38.210Z,30592.00
2018-05-03T10:40:38.261Z,31808.00
2018-05-03T10:41:38.341Z,33408.00
2018-05-03T10:42:38.363Z,36256.00
2018-05-03T10:43:38.439Z,38528.00
2018-05-03T10:44:38.470Z,39968.00
2018-05-03T10:45:38.521Z,40352.00
2018-05-03T10:46:38.570Z,40992.00
2018-05-03T10:47:38.645Z,42464.00
2018-05-03T10:48:38.784Z,44608.00
2018-05-03T10:49:38.725Z,42848.00
2018-05-03T10:50:38.796Z,40448.00
2018-05-03T10:51:38.828Z,39872.00
2018-05-03T10:52:38.882Z,41184.00
2018-05-03T10:53:38.964Z,45280.00
2018-05-03T10:54:38.983Z,54912.00
2018-05-03T10:55:39.039Z,70464.00
2018-05-03T10:56:39.086Z,73056.00
2018-05-03T10:57:39.139Z,55488.00
2018-05-03T10:58:39.230Z,47040.00
2018-05-03T10:59:39.245Z,81120.00
2018-05-03T11:00:39.296Z,92032.00
2018-05-03T11:01:39.348Z,63520.00
2018-05-03T11:02:39.399Z,65952.00
2018-05-03T11:03:39.482Z,50944.00
2018-05-03T11:04:39.505Z,44224.00
2018-05-03T11:05:39.557Z,43904.00
2018-05-03T11:06:39.607Z,43680.00
2018-05-03T11:07:39.661Z,44768.00
2018-05-03T11:08:39.750Z,41280.00
2018-05-03T11:09:39.767Z,43584.00
2018-05-03T11:10:39.820Z,46848.00
2018-05-03T11:11:39.871Z,48288.00
2018-05-03T11:12:39.922Z,49536.00
2018-05-03T11:13:40.001Z,50304.00
2018-05-03T11:14:40.077Z,47520.00
2018-05-03T11:15:40.078Z,45664.00
2018-05-03T11:16:40.144Z,43488.00
2018-05-03T11:17:40.185Z,42560.00
2018-05-03T11:18:40.241Z,45440.00
2018-05-03T11:19:40.319Z,47488.00
2018-05-03T11:20:40.340Z,48416.00
2018-05-03T11:21:40.392Z,51008.00
2018-05-03T11:22:40.442Z,53504.00
2018-05-03T11:23:40.499Z,56000.00
2018-05-03T11:24:40.587Z,52320.00
2018-05-03T11:25:40.600Z,51104.00
2018-05-03T11:26:40.652Z,49088.00
2018-05-03T11:27:40.706Z,49344.00
2018-05-03T11:28:40.756Z,52800.00
2018-05-03T11:29:40.849Z,57664.00
2018-05-03T11:30:40.866Z,66528.00
2018-05-03T11:31:40.920Z,123424.00
2018-05-03T11:32:40.967Z,93440.00
2018-05-03T11:33:41.030Z,85056.00
2018-05-03T11:34:41.095Z,61984.00
2018-05-03T11:35:41.128Z,50368.00
2018-05-03T11:36:41.191Z,44896.00
2018-05-03T11:37:41.306Z,45088.00
2018-05-03T11:38:41.285Z,47552.00
2018-05-03T11:39:41.359Z,50496.00
2018-05-03T11:40:41.414Z,55488.00
2018-05-03T11:41:41.450Z,54400.00
2018-05-03T11:42:41.500Z,58400.00
2018-05-03T11:43:41.552Z,68096.00
2018-05-03T11:44:41.603Z,91072.00
2018-05-03T11:45:41.678Z,103200.00
2018-05-03T11:46:41.706Z,133280.00
2018-05-03T11:47:41.761Z,137600.00
2018-05-03T11:48:41.836Z,110336.00
2018-05-03T11:49:41.865Z,100672.00
2018-05-03T11:50:41.949Z,119072.00
2018-05-03T11:51:41.971Z,113504.00
2018-05-03T11:52:42.028Z,84992.00
2018-05-03T11:53:42.078Z,77920.00
2018-05-03T11:54:42.138Z,64960.00
2018-05-03T11:55:42.225Z,60576.00
2018-05-03T11:56:42.241Z,95072.00
2018-05-03T11:57:42.296Z,83712.00
2018-05-03T11:58:42.349Z,74592.00
2018-05-03T11:59:42.411Z,70656.00
2018-05-03T12:00:42.503Z,52576.00
2018-05-03T12:01:42.515Z,50080.00
2018-05-03T12:02:42.566Z,50240.00
2018-05-03T12:03:42.623Z,50592.00
2018-05-03T12:04:42.680Z,51744.00
2018-05-03T12:05:42.756Z,60864.00
2018-05-03T12:06:42.818Z,51008.00
2018-05-03T12:07:42.840Z,48576.00
2018-05-03T12:08:42.894Z,46176.00
2018-05-03T12:09:42.950Z,47424.00
2018-05-03T12:10:43.003Z,52224.00
2018-05-03T12:11:43.192Z,61600.00
2018-05-03T12:12:43.115Z,68096.00
2018-05-03T12:13:43.166Z,101312.00
2018-05-03T12:14:43.225Z,70400.00
2018-05-03T12:15:43.275Z,63072.00
2018-05-03T12:16:43.350Z,83968.00
2018-05-03T12:17:43.407Z,74720.00
2018-05-03T12:18:43.436Z,77408.00
2018-05-03T12:19:43.487Z,133088.00
2018-05-03T12:20:43.542Z,141888.00
2018-05-03T12:21:43.597Z,84352.00